createdAt,value
2023-03-21T00:01:29.726Z,15.05
2023-03-21T00:04:44.602Z,14.87
2023-03-21T00:07:54.498Z,14.75
2023-03-21T00:11:02.676Z,14.94
2023-03-21T00:14:06.054Z,15.01
2023-03-21T00:17:11.356Z,14.96
2023-03-21T00:20:15.441Z,14.91
2023-03-21T00:23:17.763Z,14.98
2023-03-21T00:26:24.702Z,14.95
2023-03-21T00:29:28.070Z,14.85
2023-03-21T00:32:30.601Z,14.86
2023-03-21T00:35:57.993Z,14.80
2023-03-21T00:38:56.219Z,14.84
2023-03-21T00:41:58.420Z,14.93
2023-03-21T00:45:02.086Z,14.95
2023-03-21T00:48:06.381Z,14.98
2023-03-21T00:51:15.859Z,14.98
2023-03-21T00:54:18.364Z,14.94
2023-03-21T00:57:29.285Z,15.03
2023-03-21T01:00:37.477Z,15.00
2023-03-21T01:03:43.022Z,15.05
2023-03-21T01:06:48.186Z,15.16
2023-03-21T01:09:51.322Z,15.06
2023-03-21T01:12:54.964Z,15.09
2023-03-21T01:15:57.879Z,15.07
2023-03-21T01:19:01.142Z,14.94
2023-03-21T01:22:03.781Z,14.98
2023-03-21T01:25:21.564Z,14.89
2023-03-21T01:28:29.691Z,14.98
2023-03-21T01:31:32.232Z,14.96
2023-03-21T01:34:34.517Z,14.92
2023-03-21T01:37:36.907Z,15.00
2023-03-21T01:40:40.193Z,15.02
2023-03-21T01:43:52.357Z,15.00
2023-03-21T01:47:09.885Z,14.92
2023-03-21T01:50:38.901Z,14.86
2023-03-21T01:53:54.045Z,14.97
2023-03-21T01:56:58.647Z,14.96
2023-03-21T02:00:13.316Z,15.07
2023-03-21T02:03:35.071Z,15.00
2023-03-21T02:07:04.503Z,15.18
2023-03-21T02:10:15.271Z,15.11
2023-03-21T02:13:23.395Z,15.13
2023-03-21T02:16:42.547Z,15.01
2023-03-21T02:20:18.565Z,15.11
2023-03-21T02:23:55.702Z,15.17
2023-03-21T02:27:22.064Z,15.13
2023-03-21T02:30:50.903Z,15.08
2023-03-21T02:33:57.685Z,15.00
2023-03-21T02:37:31.858Z,15.13
2023-03-21T02:41:03.440Z,15.07
2023-03-21T02:44:08.001Z,15.10
2023-03-21T02:47:27.017Z,15.13
2023-03-21T02:50:37.763Z,14.97
2023-03-21T02:53:44.203Z,15.18
2023-03-21T02:56:49.675Z,15.06
2023-03-21T02:59:58.428Z,15.08
2023-03-21T03:03:18.217Z,14.96
2023-03-21T03:06:34.071Z,14.98
2023-03-21T03:09:38.711Z,14.93
2023-03-21T03:12:53.543Z,14.98
2023-03-21T03:16:02.499Z,14.92
2023-03-21T03:19:11.034Z,14.91
2023-03-21T03:22:26.036Z,14.89
2023-03-21T03:25:42.470Z,14.98
2023-03-21T03:28:53.297Z,14.93
2023-03-21T03:32:01.891Z,14.90
2023-03-21T03:35:08.216Z,14.93
2023-03-21T03:38:12.133Z,14.90
2023-03-21T03:41:26.149Z,14.93
2023-03-21T03:44:34.417Z,14.90
2023-03-21T03:47:57.600Z,14.95
2023-03-21T03:51:13.696Z,15.04
2023-03-21T03:54:45.410Z,14.94
2023-03-21T03:57:48.369Z,14.98
2023-03-21T04:00:51.874Z,14.93
2023-03-21T04:04:06.976Z,14.74
2023-03-21T04:07:15.164Z,14.86
2023-03-21T04:10:18.395Z,14.90
2023-03-21T04:13:21.024Z,14.89
2023-03-21T04:16:37.416Z,14.69
2023-03-21T04:19:39.586Z,14.76
2023-03-21T04:22:43.294Z,14.74
2023-03-21T04:25:55.995Z,14.72
2023-03-21T04:29:05.730Z,14.73
2023-03-21T04:32:41.038Z,14.76
2023-03-21T04:35:48.188Z,14.81
2023-03-21T04:38:50.846Z,14.79
2023-03-21T04:41:53.364Z,14.73
2023-03-21T04:44:58.150Z,14.79
2023-03-21T04:48:00.559Z,14.82
2023-03-21T04:51:02.835Z,14.83
2023-03-21T04:54:06.057Z,14.74
2023-03-21T04:57:10.633Z,14.69
2023-03-21T05:00:16.334Z,14.87
2023-03-21T05:03:20.664Z,14.71
2023-03-21T05:06:23.735Z,14.67
2023-03-21T05:09:26.157Z,14.69
2023-03-21T05:12:28.475Z,14.58
2023-03-21T05:15:37.500Z,14.64
2023-03-21T05:18:40.350Z,14.76
2023-03-21T05:21:50.041Z,14.76
2023-03-21T05:24:56.269Z,14.77
2023-03-21T05:28:31.767Z,14.46
2023-03-21T05:31:36.619Z,14.73
2023-03-21T05:34:43.992Z,14.99
2023-03-21T05:37:46.137Z,15.13
2023-03-21T05:40:50.355Z,15.54
2023-03-21T05:43:53.214Z,15.61
2023-03-21T05:46:55.344Z,15.64
2023-03-21T05:50:04.194Z,15.63
2023-03-21T05:53:07.526Z,15.82
2023-03-21T05:56:10.305Z,15.96
2023-03-21T05:59:21.176Z,16.04
2023-03-21T06:02:26.613Z,16.11
2023-03-21T06:05:30.497Z,16.13
2023-03-21T06:08:33.422Z,15.97
2023-03-21T06:11:36.918Z,15.92
2023-03-21T06:15:01.311Z,16.04
2023-03-21T06:18:13.417Z,15.69
2023-03-21T06:21:26.739Z,15.49
2023-03-21T06:24:28.930Z,15.52
2023-03-21T06:27:31.407Z,15.46
2023-03-21T06:30:34.063Z,15.42
2023-03-21T06:33:56.997Z,15.95
2023-03-21T06:36:59.036Z,16.41
2023-03-21T06:40:07.967Z,16.31
2023-03-21T06:43:10.445Z,16.19
2023-03-21T06:46:12.411Z,16.30
2023-03-21T06:49:14.618Z,16.31
2023-03-21T06:52:17.075Z,16.20
2023-03-21T06:55:20.048Z,16.17
2023-03-21T06:58:22.485Z,16.16
2023-03-21T07:01:27.738Z,16.17
2023-03-21T07:04:37.550Z,16.25
2023-03-21T07:07:41.241Z,16.48
2023-03-21T07:10:45.439Z,16.50
2023-03-21T07:13:49.337Z,16.49
2023-03-21T07:16:51.592Z,16.44
2023-03-21T07:19:53.680Z,16.52
2023-03-21T07:22:56.416Z,16.63
2023-03-21T07:26:02.130Z,16.77
2023-03-21T07:29:04.500Z,16.77
2023-03-21T07:32:06.914Z,16.68
2023-03-21T07:35:11.640Z,16.61
2023-03-21T07:38:17.525Z,16.66
2023-03-21T07:41:19.466Z,16.78
2023-03-21T07:44:24.500Z,16.79
2023-03-21T07:47:37.130Z,16.84
2023-03-21T07:50:40.106Z,16.90
2023-03-21T07:53:43.918Z,16.94
2023-03-21T07:56:46.108Z,16.94
2023-03-21T07:59:48.116Z,16.94
2023-03-21T08:02:58.989Z,17.06
2023-03-21T08:06:03.552Z,17.06
2023-03-21T08:09:05.684Z,17.09
2023-03-21T08:12:08.877Z,17.20
2023-03-21T08:15:11.691Z,17.28
2023-03-21T08:18:14.820Z,17.31
2023-03-21T08:21:17.072Z,17.31
2023-03-21T08:24:19.212Z,17.36
2023-03-21T08:27:21.101Z,17.38
2023-03-21T08:30:24.251Z,17.43
2023-03-21T08:33:26.302Z,17.41
2023-03-21T08:36:28.265Z,17.39
2023-03-21T08:39:30.371Z,17.55
2023-03-21T08:42:34.033Z,17.54
2023-03-21T08:45:36.512Z,17.67
2023-03-21T08:48:38.987Z,17.73
2023-03-21T08:51:41.367Z,17.75
2023-03-21T08:54:45.528Z,17.83
2023-03-21T08:57:47.513Z,17.80
2023-03-21T09:00:49.448Z,17.86
2023-03-21T09:03:51.785Z,17.88
2023-03-21T09:06:56.421Z,17.92
2023-03-21T09:10:19.145Z,18.04
2023-03-21T09:13:21.083Z,18.13
2023-03-21T09:16:23.113Z,18.24
2023-03-21T09:19:25.977Z,18.36
2023-03-21T09:22:28.218Z,18.25
2023-03-21T09:25:31.693Z,18.13
2023-03-21T09:28:35.220Z,18.16
2023-03-21T09:31:37.463Z,18.27
2023-03-21T09:34:41.450Z,18.37
2023-03-21T09:37:43.804Z,18.39
2023-03-21T09:40:55.987Z,18.48
2023-03-21T09:44:03.700Z,18.57
2023-03-21T09:47:06.466Z,18.76
2023-03-21T09:50:17.292Z,18.72
2023-03-21T09:53:31.093Z,18.82
2023-03-21T09:56:34.790Z,18.85
2023-03-21T09:59:42.181Z,18.81
2023-03-21T10:02:48.055Z,18.84
2023-03-21T10:05:52.678Z,18.71
2023-03-21T10:08:57.190Z,18.61
2023-03-21T10:12:02.378Z,18.61
2023-03-21T10:15:06.214Z,18.63
2023-03-21T10:18:13.480Z,18.56
2023-03-21T10:21:43.116Z,18.55
2023-03-21T10:24:41.990Z,18.54
2023-03-21T10:27:44.205Z,18.64
2023-03-21T10:30:48.132Z,18.75
2023-03-21T10:33:50.961Z,18.83
2023-03-21T10:36:56.039Z,18.82
2023-03-21T10:39:58.114Z,18.78
2023-03-21T10:43:30.113Z,18.73
2023-03-21T10:46:36.091Z,18.74
2023-03-21T10:50:06.535Z,18.72
2023-03-21T10:53:01.200Z,18.75
2023-03-21T10:56:06.785Z,18.74
2023-03-21T10:59:10.450Z,18.75
2023-03-21T11:02:21.025Z,18.80
2023-03-21T11:05:26.180Z,18.87
2023-03-21T11:08:28.578Z,18.96
2023-03-21T11:11:35.402Z,19.01
2023-03-21T11:14:38.928Z,19.03
2023-03-21T11:17:41.900Z,19.03
2023-03-21T11:20:54.402Z,19.00
2023-03-21T11:23:57.368Z,18.89
2023-03-21T11:26:59.685Z,18.88
2023-03-21T11:30:02.926Z,18.72
2023-03-21T11:33:07.036Z,18.60
2023-03-21T11:36:21.025Z,18.64
2023-03-21T11:39:39.934Z,18.75
2023-03-21T11:42:45.905Z,18.83
2023-03-21T11:46:08.490Z,18.86
2023-03-21T11:49:11.044Z,18.88
2023-03-21T11:52:23.717Z,18.92
2023-03-21T11:55:28.730Z,18.90
2023-03-21T11:58:33.711Z,18.77
2023-03-21T12:01:54.501Z,18.78
2023-03-21T12:05:02.497Z,18.84
2023-03-21T12:08:07.488Z,18.92
2023-03-21T12:11:18.868Z,18.98
2023-03-21T12:14:21.122Z,18.98
2023-03-21T12:17:26.068Z,19.02
2023-03-21T12:20:39.966Z,19.05
2023-03-21T12:23:41.874Z,19.04
2023-03-21T12:27:02.293Z,19.04
2023-03-21T12:30:13.821Z,19.00
2023-03-21T12:33:17.113Z,18.99
2023-03-21T12:36:25.064Z,18.98
2023-03-21T12:39:35.621Z,19.04
2023-03-21T12:42:49.676Z,19.14
2023-03-21T12:45:54.089Z,19.23
2023-03-21T12:49:02.705Z,19.30
2023-03-21T12:52:08.209Z,19.35
2023-03-21T12:55:37.005Z,19.27
2023-03-21T12:59:02.205Z,19.11
2023-03-21T13:02:14.907Z,19.05
2023-03-21T13:05:17.407Z,19.09
2023-03-21T13:08:38.705Z,19.09
2023-03-21T13:11:40.609Z,19.10
2023-03-21T13:14:56.913Z,19.14
2023-03-21T13:18:17.391Z,19.11
2023-03-21T13:21:32.461Z,19.16
2023-03-21T13:24:49.030Z,19.18
2023-03-21T13:28:04.697Z,19.18
2023-03-21T13:31:25.218Z,19.18
2023-03-21T13:34:27.538Z,19.17
2023-03-21T13:37:35.479Z,19.07
2023-03-21T13:40:59.005Z,19.01
2023-03-21T13:44:03.766Z,18.99
2023-03-21T13:47:07.418Z,18.94
2023-03-21T13:50:30.537Z,18.93
2023-03-21T13:53:33.946Z,18.90
2023-03-21T13:56:56.938Z,18.91
2023-03-21T14:00:17.946Z,18.92
2023-03-21T14:03:21.222Z,19.44
2023-03-21T14:06:24.760Z,20.51
2023-03-21T14:09:30.493Z,20.76
2023-03-21T14:12:38.410Z,21.02
2023-03-21T14:15:54.952Z,21.24
2023-03-21T14:19:07.451Z,21.56
2023-03-21T14:22:11.560Z,21.65
2023-03-21T14:25:14.738Z,21.80
2023-03-21T14:28:28.116Z,22.09
2023-03-21T14:31:30.246Z,22.21
2023-03-21T14:34:36.318Z,22.23
2023-03-21T14:37:40.026Z,22.35
2023-03-21T14:40:48.104Z,22.53
2023-03-21T14:44:03.438Z,22.60
2023-03-21T14:47:06.792Z,22.71
2023-03-21T14:50:11.281Z,22.71
2023-03-21T14:53:16.259Z,22.68
2023-03-21T14:56:22.551Z,22.61
2023-03-21T14:59:26.828Z,22.69
2023-03-21T15:02:33.993Z,22.79
2023-03-21T15:05:38.450Z,22.81
2023-03-21T15:08:54.568Z,22.90
2023-03-21T15:11:58.061Z,22.93
2023-03-21T15:15:00.642Z,22.93
2023-03-21T15:18:06.317Z,22.94
2023-03-21T15:21:20.644Z,22.96
2023-03-21T15:24:25.957Z,23.00
2023-03-21T15:27:29.791Z,23.08
2023-03-21T15:30:34.230Z,23.25
2023-03-21T15:33:36.319Z,23.21
2023-03-21T15:36:44.475Z,23.08
2023-03-21T15:39:46.547Z,22.99
2023-03-21T15:42:48.646Z,22.83
2023-03-21T15:45:54.587Z,22.67
2023-03-21T15:49:09.819Z,22.48
2023-03-21T15:52:13.730Z,22.27
2023-03-21T15:55:22.407Z,22.15
2023-03-21T15:58:26.130Z,21.92
2023-03-21T16:01:30.496Z,21.50
2023-03-21T16:04:32.685Z,21.31
2023-03-21T16:07:38.397Z,21.38
2023-03-21T16:10:40.736Z,21.43
2023-03-21T16:13:43.213Z,21.50
2023-03-21T16:16:46.469Z,21.50
2023-03-21T16:19:49.707Z,21.49
2023-03-21T16:22:51.748Z,21.36
2023-03-21T16:25:59.106Z,21.22
2023-03-21T16:29:01.483Z,21.02
2023-03-21T16:32:06.405Z,21.01
2023-03-21T16:35:08.669Z,20.88
2023-03-21T16:38:11.980Z,20.69
2023-03-21T16:41:14.458Z,20.49
2023-03-21T16:44:16.715Z,20.30
2023-03-21T16:47:20.939Z,20.16
2023-03-21T16:50:24.444Z,20.02
2023-03-21T16:53:28.007Z,19.93
2023-03-21T16:56:40.413Z,19.78
2023-03-21T16:59:42.969Z,19.69
2023-03-21T17:02:45.114Z,19.61
2023-03-21T17:05:47.304Z,19.50
2023-03-21T17:08:50.346Z,19.40
2023-03-21T17:11:52.324Z,19.34
2023-03-21T17:14:54.318Z,19.27
2023-03-21T17:17:56.373Z,19.20
2023-03-21T17:20:58.420Z,19.12
2023-03-21T17:24:00.905Z,19.11
2023-03-21T17:27:06.274Z,19.18
2023-03-21T17:30:28.234Z,19.13
2023-03-21T17:33:30.577Z,19.09
2023-03-21T17:36:36.718Z,19.04
2023-03-21T17:39:39.102Z,18.95
2023-03-21T17:42:41.351Z,18.85
2023-03-21T17:45:43.397Z,18.75
2023-03-21T17:48:46.150Z,18.64
2023-03-21T17:51:48.287Z,18.55
2023-03-21T17:54:50.385Z,18.46
2023-03-21T17:57:52.506Z,18.38
2023-03-21T18:00:54.413Z,18.34
2023-03-21T18:03:56.428Z,18.29
2023-03-21T18:07:01.160Z,18.29
2023-03-21T18:10:04.114Z,18.29
2023-03-21T18:13:06.409Z,18.24
2023-03-21T18:16:12.208Z,18.16
2023-03-21T18:19:14.616Z,18.16
2023-03-21T18:22:18.566Z,18.21
2023-03-21T18:25:20.652Z,18.27
2023-03-21T18:28:26.252Z,18.29
2023-03-21T18:31:30.437Z,18.39
2023-03-21T18:34:32.703Z,18.36
2023-03-21T18:37:35.572Z,18.26
2023-03-21T18:40:38.422Z,18.23
2023-03-21T18:44:01.100Z,18.26
2023-03-21T18:47:04.435Z,18.24
2023-03-21T18:50:14.758Z,18.24
2023-03-21T18:53:17.558Z,18.25
2023-03-21T18:57:13.217Z,18.26
2023-03-21T18:59:42.590Z,18.26
2023-03-21T19:02:49.078Z,18.28
2023-03-21T19:05:52.513Z,18.37
2023-03-21T19:08:54.527Z,18.33
2023-03-21T19:11:57.489Z,18.37
2023-03-21T19:14:59.519Z,18.49
2023-03-21T19:21:26.533Z,18.78
2023-03-21T19:24:29.140Z,19.65
2023-03-21T19:27:56.276Z,20.92
2023-03-21T19:31:04.055Z,22.99
2023-03-21T19:34:08.483Z,24.49
2023-03-21T19:37:10.365Z,24.32
2023-03-21T19:40:14.714Z,23.97
2023-03-21T19:43:32.154Z,23.16
2023-03-21T19:46:35.005Z,22.60
2023-03-21T19:50:34.555Z,21.67
2023-03-21T19:53:04.308Z,20.20
2023-03-21T19:56:19.725Z,19.40
2023-03-21T19:59:24.560Z,18.90
2023-03-21T20:02:36.070Z,18.66
2023-03-21T20:05:42.894Z,18.58
2023-03-21T20:09:30.830Z,18.50
2023-03-21T20:12:38.349Z,18.30
2023-03-21T20:15:47.718Z,18.37
2023-03-21T20:18:51.280Z,18.49
2023-03-21T20:22:00.601Z,18.78
2023-03-21T20:25:08.597Z,19.19
2023-03-21T20:28:15.622Z,19.31
2023-03-21T20:31:19.421Z,19.44
2023-03-21T20:34:21.802Z,19.45
2023-03-21T20:37:27.748Z,19.47
2023-03-21T20:40:32.653Z,19.47
2023-03-21T20:44:28.213Z,19.36
2023-03-21T20:47:00.583Z,19.32
2023-03-21T20:50:03.284Z,19.27
2023-03-21T20:53:07.725Z,19.19
2023-03-21T20:56:09.794Z,19.11
2023-03-21T20:59:20.888Z,19.08
2023-03-21T21:02:32.405Z,18.98
2023-03-21T21:05:36.655Z,18.92
2023-03-21T21:08:42.212Z,18.82
2023-03-21T21:15:07.968Z,18.72
2023-03-21T21:18:10.139Z,18.59
2023-03-21T21:21:17.363Z,18.49
2023-03-21T21:24:20.239Z,18.48
2023-03-21T21:27:22.246Z,18.45
2023-03-21T21:30:24.603Z,18.43
2023-03-21T21:33:29.582Z,18.36
2023-03-21T21:36:31.596Z,18.29
2023-03-21T21:39:35.310Z,18.22
2023-03-21T21:42:37.218Z,18.23
2023-03-21T21:45:42.319Z,18.18
2023-03-21T21:48:44.329Z,18.11
2023-03-21T21:51:47.742Z,18.10
2023-03-21T21:54:50.691Z,18.03
2023-03-21T21:57:53.178Z,17.98
2023-03-21T22:00:58.964Z,17.97
2023-03-21T22:04:06.378Z,17.93
2023-03-21T22:07:17.309Z,17.87
2023-03-21T22:10:20.341Z,17.79
2023-03-21T22:13:22.296Z,17.83
2023-03-21T22:16:24.295Z,17.75
2023-03-21T22:19:27.775Z,17.71
2023-03-21T22:22:29.829Z,17.62
2023-03-21T22:25:35.516Z,17.57
2023-03-21T22:28:40.515Z,17.49
2023-03-21T22:31:43.481Z,17.43
2023-03-21T22:34:45.783Z,17.39
2023-03-21T22:37:50.687Z,17.34
2023-03-21T22:40:59.350Z,17.33
2023-03-21T22:44:01.697Z,17.31
2023-03-21T22:47:04.754Z,17.29
2023-03-21T22:50:07.671Z,17.30
2023-03-21T22:53:09.636Z,17.26
2023-03-21T22:56:12.606Z,17.30
2023-03-21T22:59:14.599Z,17.24
2023-03-21T23:02:16.604Z,17.30
2023-03-21T23:05:19.707Z,17.32
2023-03-21T23:08:21.644Z,17.29
2023-03-21T23:11:23.612Z,17.22
2023-03-21T23:14:25.715Z,17.16
2023-03-21T23:17:27.661Z,17.11
2023-03-21T23:20:29.771Z,17.06
2023-03-21T23:23:36.757Z,16.99
2023-03-21T23:26:38.687Z,16.95
2023-03-21T23:29:40.542Z,16.99
2023-03-21T23:32:42.830Z,16.90
2023-03-21T23:35:46.197Z,16.88
2023-03-21T23:38:48.541Z,16.83
2023-03-21T23:41:50.483Z,16.82
2023-03-21T23:44:52.465Z,16.81
2023-03-21T23:47:54.454Z,16.79
2023-03-21T23:50:56.614Z,16.74
2023-03-21T23:53:58.813Z,16.75
2023-03-21T23:57:00.876Z,16.73
